Contreras, New Mexico
Current Conditions -  °F | °C
As of 2:15 PM on Monday 24 Nov 2014 (Local Time) from KONM Reporting Station
Scattered Clouds Scattered Clouds  
Wind Chill: 53°   Ceiling: Unl
Heat Index: 53°   Visibility: 10mi
Dew Point:   Wind: 17mph
Humidity: 14%   Direction: 350°N
Pressure: 30.06"   Gusts: 24mph
Location:  34.3166°N, 106.801°W
Report Text: KONM 242115Z AUTO 35015G21KT 10SM SCT110 12/M15 A3006 RMK AO2 T01151152
Loading
Personal Weather Stations






























Interactive Weather Map New forecast layout! Learn more

10-Day Weather Forecast

Advertisements
Track Severe Weather on mobile